Terminal Aerodrome Forecast
Issued by NWS

Home | Current Version | Previous Version | Text Only | Print | Product List | Glossary On
Versions: 1 2 3 4 5 6 7 8 9 10 11 12 13 14 15 16 17 18 19 20 21 22
000
FTUS45 KSLC 202321
TAFBCE
TAF
KBCE 202321Z 2100/2124 VRB05KT P6SM VCSH SCT080 BKN110
     FM210500 23010KT P6SM VCSH SCT040 BKN080
     FM211600 15008KT P6SM VCTS SCT040CB BKN080=

USA.gov is the U.S. government's official web portal to all federal, state and local government web resources and services.